Terminal Aerodrome Forecast
Issued by NWS Cleveland, OH

Home | Current Version | Previous Version | Graphics & Text | Print | Product List | Glossary On
Versions: 1 2 3 4 5 6 7 8 9 10 11 12 13 14 15 16 17 18
000
FTUS41 KCLE 291100 RRA
TAFYNG
TAF
KYNG 291141Z 2912/3012 28005KT P6SM SCT025 BKN040
     FM300300 22005KT P6SM VCSH BKN045 BKN080
     FM300600 22004KT P6SM BKN035=

USA.gov is the U.S. government's official web portal to all federal, state and local government web resources and services.